createdAt,value
2022-10-30T00:00:52.473Z,19.80
2022-10-30T00:03:21.024Z,18.50
2022-10-30T00:05:51.793Z,18.83
2022-10-30T00:08:22.390Z,17.27
2022-10-30T00:10:51.407Z,15.93
2022-10-30T00:13:20.945Z,17.70
2022-10-30T00:15:52.270Z,16.80
2022-10-30T00:18:21.542Z,17.80
2022-10-30T00:20:50.338Z,18.73
2022-10-30T00:23:18.710Z,17.93
2022-10-30T00:25:47.058Z,17.83
2022-10-30T00:28:15.501Z,18.10
2022-10-30T00:30:45.087Z,18.17
2022-10-30T00:33:14.676Z,17.30
2022-10-30T00:35:49.961Z,18.77
2022-10-30T00:38:18.287Z,17.10
2022-10-30T00:40:46.771Z,17.73
2022-10-30T00:43:33.618Z,17.10
2022-10-30T00:46:07.309Z,16.63
2022-10-30T00:48:37.679Z,17.63
2022-10-30T00:51:07.971Z,16.47
2022-10-30T00:53:36.856Z,17.13
2022-10-30T00:56:08.182Z,18.73
2022-10-30T00:58:40.907Z,17.03
2022-10-30T01:01:15.851Z,20.33
2022-10-30T01:03:46.553Z,18.70
2022-10-30T01:06:17.296Z,21.13
2022-10-30T01:08:46.827Z,19.87
2022-10-30T01:11:15.231Z,18.60
2022-10-30T01:13:46.822Z,18.03
2022-10-30T01:16:44.474Z,18.50
2022-10-30T01:19:27.229Z,18.33
2022-10-30T01:22:14.419Z,20.10
2022-10-30T01:24:54.047Z,17.97
2022-10-30T01:27:38.459Z,18.33
2022-10-30T01:30:19.795Z,19.60
2022-10-30T01:33:00.032Z,19.50
2022-10-30T01:35:39.078Z,19.37
2022-10-30T01:38:13.539Z,18.87
2022-10-30T01:40:41.827Z,19.80
2022-10-30T01:43:10.402Z,20.57
2022-10-30T01:45:50.908Z,18.87
2022-10-30T01:48:45.369Z,18.47
2022-10-30T01:51:21.718Z,18.70
2022-10-30T01:53:56.982Z,19.80
2022-10-30T01:56:37.067Z,19.13
2022-10-30T01:59:14.605Z,18.80
2022-10-30T02:01:43.101Z,18.50
2022-10-30T02:04:13.442Z,19.43
2022-10-30T02:06:43.618Z,20.53
2022-10-30T02:09:12.199Z,18.63
2022-10-30T02:11:49.136Z,27.87
2022-10-30T02:14:22.689Z,24.77
2022-10-30T02:16:53.425Z,23.37
2022-10-30T02:19:22.130Z,26.00
2022-10-30T02:21:52.398Z,22.90
2022-10-30T02:24:20.951Z,21.07
2022-10-30T02:26:51.665Z,20.90
2022-10-30T02:29:22.084Z,20.90
2022-10-30T02:31:50.528Z,20.27
2022-10-30T02:34:18.947Z,19.83
2022-10-30T02:36:47.217Z,18.37
2022-10-30T02:39:17.119Z,17.23
2022-10-30T02:41:45.558Z,17.07
2022-10-30T02:44:13.910Z,16.37
2022-10-30T02:46:42.208Z,16.10
2022-10-30T02:49:10.471Z,16.23
2022-10-30T02:51:38.786Z,17.37
2022-10-30T02:54:07.047Z,17.30
2022-10-30T02:56:36.650Z,16.90
2022-10-30T02:59:04.989Z,17.77
2022-10-30T03:01:33.489Z,16.83
2022-10-30T03:04:02.212Z,17.63
2022-10-30T03:06:30.508Z,15.97
2022-10-30T03:08:59.781Z,16.27
2022-10-30T03:11:28.165Z,19.33
2022-10-30T03:13:58.516Z,17.87
2022-10-30T03:16:29.637Z,18.30
2022-10-30T03:18:58.597Z,17.23
2022-10-30T03:21:29.375Z,17.37
2022-10-30T03:23:57.817Z,15.87
2022-10-30T03:26:26.141Z,16.97
2022-10-30T03:29:05.278Z,17.23
2022-10-30T03:31:34.224Z,16.70
2022-10-30T03:34:31.473Z,18.43
2022-10-30T03:37:01.145Z,18.27
2022-10-30T03:39:30.009Z,18.90
2022-10-30T03:41:58.349Z,16.67
2022-10-30T03:44:27.950Z,16.53
2022-10-30T03:46:58.363Z,16.47
2022-10-30T03:49:40.249Z,16.60
2022-10-30T03:52:13.039Z,19.03
2022-10-30T03:54:41.333Z,19.10
2022-10-30T03:57:11.308Z,20.23
2022-10-30T04:00:01.399Z,18.33
2022-10-30T04:02:49.099Z,18.27
2022-10-30T04:05:21.147Z,17.00
2022-10-30T04:07:55.950Z,16.97
2022-10-30T04:10:24.505Z,16.93
2022-10-30T04:12:54.994Z,16.87
2022-10-30T04:15:26.253Z,16.23
2022-10-30T04:17:54.786Z,17.63
2022-10-30T04:20:25.145Z,15.67
2022-10-30T04:22:57.906Z,17.33
2022-10-30T04:25:29.197Z,16.40
2022-10-30T04:28:00.159Z,16.90
2022-10-30T04:30:34.121Z,15.83
2022-10-30T04:33:04.687Z,16.63
2022-10-30T04:35:34.923Z,16.93
2022-10-30T04:38:04.965Z,17.23
2022-10-30T04:40:37.960Z,14.80
2022-10-30T04:43:09.190Z,16.50
2022-10-30T04:45:39.215Z,17.57
2022-10-30T04:48:11.500Z,18.17
2022-10-30T04:50:39.947Z,16.33
2022-10-30T04:53:11.436Z,17.20
2022-10-30T04:55:39.736Z,16.13
2022-10-30T04:58:09.443Z,16.57
2022-10-30T05:00:42.160Z,16.80
2022-10-30T05:03:20.253Z,16.17
2022-10-30T05:05:49.859Z,15.37
2022-10-30T05:08:19.281Z,15.90
2022-10-30T05:10:47.688Z,16.10
2022-10-30T05:13:15.996Z,15.53
2022-10-30T05:15:46.020Z,14.83
2022-10-30T05:18:14.556Z,20.00
2022-10-30T05:20:43.139Z,18.30
2022-10-30T05:23:11.667Z,23.27
2022-10-30T05:25:39.918Z,20.10
2022-10-30T05:28:11.577Z,19.37
2022-10-30T05:30:47.900Z,22.27
2022-10-30T05:33:36.089Z,20.17
2022-10-30T05:36:04.666Z,19.17
2022-10-30T05:38:32.908Z,20.63
2022-10-30T05:41:01.807Z,19.70
2022-10-30T05:43:30.206Z,18.07
2022-10-30T05:46:00.021Z,16.27
2022-10-30T05:48:29.070Z,16.40
2022-10-30T05:50:57.737Z,17.43
2022-10-30T05:53:29.096Z,16.90
2022-10-30T05:55:59.297Z,17.13
2022-10-30T05:58:32.099Z,14.50
2022-10-30T06:01:08.388Z,14.03
2022-10-30T06:03:43.720Z,14.90
2022-10-30T06:06:12.990Z,15.60
2022-10-30T06:08:41.336Z,13.57
2022-10-30T06:11:28.335Z,15.13
2022-10-30T06:13:59.815Z,15.00
2022-10-30T06:16:40.485Z,15.57
2022-10-30T06:19:19.276Z,14.80
2022-10-30T06:21:50.978Z,14.83
2022-10-30T06:24:54.510Z,15.07
2022-10-30T06:27:40.322Z,17.77
2022-10-30T06:30:09.393Z,17.03
2022-10-30T06:32:39.649Z,15.70
2022-10-30T06:35:09.393Z,16.37
2022-10-30T06:37:39.517Z,16.23
2022-10-30T06:40:12.781Z,15.63
2022-10-30T06:43:00.206Z,17.60
2022-10-30T06:45:37.365Z,18.07
2022-10-30T06:48:07.299Z,17.17
2022-10-30T06:50:41.271Z,17.03
2022-10-30T06:53:09.736Z,16.77
2022-10-30T06:55:38.799Z,16.10
2022-10-30T06:58:21.767Z,15.13
2022-10-30T07:01:19.356Z,14.90
2022-10-30T07:04:22.101Z,14.93
2022-10-30T07:06:50.648Z,13.77
2022-10-30T07:09:21.969Z,13.23
2022-10-30T07:11:55.934Z,13.80
2022-10-30T07:14:51.178Z,13.73
2022-10-30T07:17:57.009Z,15.00
2022-10-30T07:20:29.368Z,16.93
2022-10-30T07:22:57.828Z,16.60
2022-10-30T07:25:26.188Z,18.03
2022-10-30T07:28:04.290Z,16.17
2022-10-30T07:30:43.589Z,18.03
2022-10-30T07:33:18.130Z,17.00
2022-10-30T07:36:06.826Z,19.17
2022-10-30T07:38:52.458Z,16.43
2022-10-30T07:41:29.649Z,15.83
2022-10-30T07:44:16.338Z,22.90
2022-10-30T07:46:50.341Z,18.50
2022-10-30T07:49:26.310Z,17.07
2022-10-30T07:52:00.836Z,16.70
2022-10-30T07:54:29.708Z,15.70
2022-10-30T07:57:03.323Z,16.07
2022-10-30T07:59:58.137Z,15.27
2022-10-30T08:02:42.294Z,13.37
2022-10-30T08:05:19.977Z,14.20
2022-10-30T08:08:07.728Z,12.60
2022-10-30T08:10:36.891Z,13.83
2022-10-30T08:13:05.697Z,14.13
2022-10-30T08:15:34.236Z,13.80
2022-10-30T08:18:02.650Z,14.40
2022-10-30T08:20:30.984Z,14.60
2022-10-30T08:23:00.550Z,16.70
2022-10-30T08:25:31.618Z,14.10
2022-10-30T08:28:01.571Z,13.90
2022-10-30T08:30:36.126Z,13.20
2022-10-30T08:33:07.329Z,20.13
2022-10-30T08:35:57.636Z,17.37
2022-10-30T08:38:28.329Z,16.20
2022-10-30T08:41:20.452Z,15.63
2022-10-30T08:43:52.705Z,15.50
2022-10-30T08:46:21.154Z,15.20
2022-10-30T08:48:49.800Z,14.47
2022-10-30T08:51:19.976Z,16.57
2022-10-30T08:53:49.989Z,16.07
2022-10-30T08:56:19.919Z,16.17
2022-10-30T08:58:58.170Z,16.00
2022-10-30T09:01:26.562Z,17.10
2022-10-30T09:04:15.126Z,16.03
2022-10-30T09:06:46.335Z,15.67
2022-10-30T09:09:32.542Z,14.00
2022-10-30T09:12:05.298Z,14.27
2022-10-30T09:14:41.031Z,15.20
2022-10-30T09:17:11.100Z,15.13
2022-10-30T09:19:41.761Z,15.80
2022-10-30T09:22:11.780Z,15.47
2022-10-30T09:24:42.310Z,16.23
2022-10-30T09:27:31.818Z,15.10
2022-10-30T09:30:05.136Z,15.63
2022-10-30T09:32:36.469Z,14.67
2022-10-30T09:35:11.704Z,14.60
2022-10-30T09:37:41.664Z,14.77
2022-10-30T09:40:23.818Z,13.40
2022-10-30T09:42:58.957Z,14.07
2022-10-30T09:46:03.589Z,15.80
2022-10-30T09:48:57.103Z,15.60
2022-10-30T09:51:54.969Z,15.73
2022-10-30T09:54:37.211Z,14.97
2022-10-30T09:57:14.126Z,14.90
2022-10-30T09:59:57.086Z,16.03
2022-10-30T10:02:35.093Z,16.53
2022-10-30T10:05:15.077Z,15.60
2022-10-30T10:08:10.947Z,14.17
2022-10-30T10:11:04.084Z,13.93
2022-10-30T10:13:38.510Z,14.83
2022-10-30T10:16:14.778Z,14.50
2022-10-30T10:18:47.967Z,18.70
2022-10-30T10:21:24.705Z,17.33
2022-10-30T10:23:55.558Z,15.93
2022-10-30T10:26:32.347Z,14.70
2022-10-30T10:29:33.800Z,14.83
2022-10-30T10:32:22.050Z,14.93
2022-10-30T10:35:03.600Z,12.83
2022-10-30T10:37:39.980Z,14.17
2022-10-30T10:40:23.786Z,13.43
2022-10-30T10:43:08.121Z,13.70
2022-10-30T10:45:45.159Z,12.90
2022-10-30T10:48:49.718Z,14.37
2022-10-30T10:51:21.829Z,13.30
2022-10-30T10:53:56.878Z,18.07
2022-10-30T10:56:32.758Z,23.90
2022-10-30T10:59:05.034Z,18.20
2022-10-30T11:01:38.164Z,16.57
2022-10-30T11:04:15.626Z,15.47
2022-10-30T11:06:50.279Z,15.50
2022-10-30T11:09:20.978Z,14.60
2022-10-30T11:11:50.447Z,16.27
2022-10-30T11:14:21.625Z,15.60
2022-10-30T11:17:06.703Z,17.23
2022-10-30T11:19:36.360Z,16.87
2022-10-30T11:22:14.274Z,15.27
2022-10-30T11:24:42.560Z,16.50
2022-10-30T11:27:19.584Z,17.47
2022-10-30T11:29:54.003Z,16.83
2022-10-30T11:32:23.710Z,15.83
2022-10-30T11:35:04.516Z,16.43
2022-10-30T11:37:34.018Z,14.67
2022-10-30T11:40:08.385Z,14.30
2022-10-30T11:42:37.542Z,14.50
2022-10-30T11:45:07.564Z,15.40
2022-10-30T11:47:38.267Z,14.53
2022-10-30T11:50:17.596Z,16.20
2022-10-30T11:52:46.408Z,15.97
2022-10-30T11:55:19.520Z,16.40
2022-10-30T11:57:50.208Z,16.37
2022-10-30T12:00:20.902Z,15.83
2022-10-30T12:02:52.522Z,14.03
2022-10-30T12:05:38.958Z,15.63
2022-10-30T12:08:22.591Z,14.07
2022-10-30T12:11:00.942Z,16.97
2022-10-30T12:13:35.586Z,15.07
2022-10-30T12:16:13.829Z,16.97
2022-10-30T12:18:42.848Z,16.80
2022-10-30T12:21:19.971Z,15.80
2022-10-30T12:23:54.147Z,16.47
2022-10-30T12:26:24.200Z,17.00
2022-10-30T12:28:58.643Z,17.10
2022-10-30T12:31:36.310Z,15.87
2022-10-30T12:34:16.350Z,16.47
2022-10-30T12:36:52.645Z,16.30
2022-10-30T12:39:27.261Z,16.50
2022-10-30T12:42:02.478Z,16.60
2022-10-30T12:44:35.525Z,17.20
2022-10-30T12:47:10.611Z,15.17
2022-10-30T12:49:43.909Z,15.00
2022-10-30T12:52:20.463Z,15.00
2022-10-30T12:54:56.078Z,15.20
2022-10-30T12:57:28.111Z,15.20
2022-10-30T13:00:05.579Z,16.43
2022-10-30T13:02:55.100Z,15.17
2022-10-30T13:05:30.365Z,15.60
2022-10-30T13:08:15.595Z,16.00
2022-10-30T13:10:47.827Z,16.80
2022-10-30T13:13:20.326Z,15.90
2022-10-30T13:15:51.495Z,15.17
2022-10-30T13:18:22.361Z,16.60
2022-10-30T13:21:02.917Z,16.47
2022-10-30T13:23:40.223Z,15.77
2022-10-30T13:26:23.339Z,17.20
2022-10-30T13:29:00.415Z,19.10
2022-10-30T13:31:36.466Z,17.23
2022-10-30T13:34:12.617Z,17.27
2022-10-30T13:36:48.851Z,15.80
2022-10-30T13:39:28.669Z,15.90
2022-10-30T13:42:22.946Z,18.17
2022-10-30T13:45:02.955Z,17.80
2022-10-30T13:47:39.178Z,17.27
2022-10-30T13:50:27.737Z,17.57
2022-10-30T13:53:00.698Z,16.77
2022-10-30T13:55:34.220Z,17.17
2022-10-30T13:58:11.538Z,16.60
2022-10-30T14:00:55.147Z,16.10
2022-10-30T14:03:54.983Z,14.87
2022-10-30T14:06:34.861Z,15.07
2022-10-30T14:09:13.254Z,16.30
2022-10-30T14:11:42.975Z,16.67
2022-10-30T14:14:30.229Z,16.93
2022-10-30T14:17:14.133Z,16.37
2022-10-30T14:20:28.046Z,15.17
2022-10-30T14:23:12.458Z,14.90
2022-10-30T14:25:41.033Z,15.47
2022-10-30T14:28:20.789Z,18.33
2022-10-30T14:30:49.158Z,16.60
2022-10-30T14:33:46.639Z,15.80
2022-10-30T14:36:20.721Z,16.07
2022-10-30T14:39:02.900Z,16.20
2022-10-30T14:41:48.800Z,18.20
2022-10-30T14:44:55.522Z,20.93
2022-10-30T14:47:51.889Z,18.97
2022-10-30T14:50:39.518Z,17.40
2022-10-30T14:53:23.098Z,16.43
2022-10-30T14:56:08.029Z,17.27
2022-10-30T14:58:37.739Z,17.13
2022-10-30T15:01:32.118Z,17.00
2022-10-30T15:04:21.894Z,18.53
2022-10-30T15:07:09.017Z,18.00
2022-10-30T15:10:00.055Z,19.47
2022-10-30T15:12:43.228Z,20.73
2022-10-30T15:15:15.888Z,21.33
2022-10-30T15:17:48.549Z,20.90
2022-10-30T15:20:20.039Z,18.63
2022-10-30T15:22:51.697Z,20.60
2022-10-30T15:25:22.779Z,19.10
2022-10-30T15:27:54.569Z,20.70
2022-10-30T15:30:25.616Z,23.10
2022-10-30T15:32:56.037Z,20.00
2022-10-30T15:35:26.632Z,19.03
2022-10-30T15:38:07.326Z,17.33
2022-10-30T15:40:36.533Z,16.23
2022-10-30T15:43:07.249Z,15.83
2022-10-30T15:45:37.565Z,15.50
2022-10-30T15:48:23.471Z,14.50
2022-10-30T15:50:59.968Z,14.73
2022-10-30T15:53:37.647Z,15.10
2022-10-30T15:56:13.591Z,14.27
2022-10-30T15:58:51.010Z,15.77
2022-10-30T16:01:27.390Z,14.33
2022-10-30T16:03:57.483Z,18.60
2022-10-30T16:06:28.186Z,15.97
2022-10-30T16:08:56.748Z,15.43
2022-10-30T16:11:27.159Z,16.10
2022-10-30T16:13:55.476Z,15.97
2022-10-30T16:16:28.554Z,16.80
2022-10-30T16:19:03.349Z,16.00
2022-10-30T16:21:35.171Z,18.27
2022-10-30T16:24:05.316Z,18.07
2022-10-30T16:26:36.350Z,17.17
2022-10-30T16:29:18.364Z,18.43
2022-10-30T16:31:50.245Z,17.47
2022-10-30T16:34:25.367Z,16.13
2022-10-30T16:36:54.273Z,15.57
2022-10-30T16:39:23.158Z,15.10
2022-10-30T16:41:51.529Z,15.03
2022-10-30T16:44:26.517Z,15.43
2022-10-30T16:46:57.639Z,15.50
2022-10-30T16:49:30.314Z,14.33
2022-10-30T16:52:00.997Z,15.67
2022-10-30T16:54:32.709Z,18.47
2022-10-30T16:57:03.618Z,17.13
2022-10-30T16:59:38.380Z,16.30
2022-10-30T17:02:16.802Z,15.13
2022-10-30T17:04:52.502Z,16.23
2022-10-30T17:07:26.736Z,14.93
2022-10-30T17:09:56.928Z,15.67
2022-10-30T17:12:27.299Z,18.23
2022-10-30T17:14:57.094Z,17.13
2022-10-30T17:17:29.542Z,18.10
2022-10-30T17:20:01.474Z,17.60
2022-10-30T17:22:30.576Z,17.40
2022-10-30T17:25:00.801Z,16.23
2022-10-30T17:27:39.765Z,16.13
2022-10-30T17:30:29.789Z,17.77
2022-10-30T17:32:58.523Z,17.53
2022-10-30T17:35:28.608Z,16.03
2022-10-30T17:37:59.799Z,16.30
2022-10-30T17:40:31.119Z,16.90
2022-10-30T17:42:59.400Z,16.73
2022-10-30T17:45:27.653Z,16.77
2022-10-30T17:47:56.280Z,16.07
2022-10-30T17:50:24.837Z,22.83
2022-10-30T17:52:54.373Z,18.60
2022-10-30T17:55:25.930Z,19.03
2022-10-30T17:57:54.501Z,17.90
2022-10-30T18:00:22.739Z,18.13
2022-10-30T18:02:50.972Z,17.70
2022-10-30T18:05:22.047Z,17.20
2022-10-30T18:10:19.951Z,17.73
2022-10-30T18:12:48.237Z,15.67
2022-10-30T18:15:32.460Z,15.73
2022-10-30T18:18:00.929Z,14.50
2022-10-30T18:20:30.088Z,13.70
2022-10-30T18:22:59.163Z,15.23
2022-10-30T18:25:32.728Z,16.23
2022-10-30T18:28:00.992Z,15.07
2022-10-30T18:30:29.836Z,14.70
2022-10-30T18:32:58.793Z,16.63
2022-10-30T18:35:31.413Z,20.03
2022-10-30T18:38:00.197Z,24.53
2022-10-30T18:40:30.189Z,21.07
2022-10-30T18:42:59.280Z,20.93
2022-10-30T18:45:29.428Z,20.83
2022-10-30T18:47:58.960Z,19.00
2022-10-30T18:50:30.374Z,17.33
2022-10-30T18:52:59.015Z,17.70
2022-10-30T18:55:33.159Z,16.37
2022-10-30T18:58:02.236Z,16.60
2022-10-30T19:00:39.673Z,16.87
2022-10-30T19:03:19.413Z,16.70
2022-10-30T19:05:49.395Z,17.67
2022-10-30T19:08:19.077Z,16.33
2022-10-30T19:10:48.982Z,17.27
2022-10-30T19:13:20.804Z,17.33
2022-10-30T19:15:52.887Z,16.77
2022-10-30T19:18:25.873Z,17.53
2022-10-30T19:21:15.565Z,16.83
2022-10-30T19:23:42.958Z,15.87
2022-10-30T19:26:14.787Z,15.53
2022-10-30T19:28:43.347Z,15.73
2022-10-30T19:31:15.012Z,14.97
2022-10-30T19:33:44.055Z,16.13
2022-10-30T19:36:28.617Z,15.70
2022-10-30T19:38:57.259Z,16.23
2022-10-30T19:41:27.324Z,16.60
2022-10-30T19:43:55.801Z,15.87
2022-10-30T19:46:24.089Z,16.93
2022-10-30T19:48:57.774Z,15.73
2022-10-30T19:51:27.183Z,15.97
2022-10-30T19:53:55.601Z,18.40
2022-10-30T19:56:23.877Z,19.90
2022-10-30T19:58:53.485Z,20.23
2022-10-30T20:01:22.012Z,19.57
2022-10-30T20:03:50.401Z,19.10
2022-10-30T20:06:19.355Z,17.00
2022-10-30T20:08:47.628Z,17.37
2022-10-30T20:11:15.893Z,16.13
2022-10-30T20:13:44.085Z,17.73
2022-10-30T20:16:13.699Z,17.47
2022-10-30T20:18:41.997Z,18.60
2022-10-30T20:21:13.682Z,21.10
2022-10-30T20:23:42.176Z,20.20
2022-10-30T20:26:24.066Z,19.27
2022-10-30T20:28:53.108Z,21.17
2022-10-30T20:31:23.238Z,19.20
2022-10-30T20:33:51.557Z,19.70
2022-10-30T20:36:20.409Z,17.93
2022-10-30T20:38:48.683Z,20.10
2022-10-30T20:41:22.385Z,20.43
2022-10-30T20:43:51.230Z,18.07
2022-10-30T20:46:20.125Z,17.30
2022-10-30T20:48:50.140Z,17.83
2022-10-30T20:51:18.412Z,18.97
2022-10-30T20:53:46.860Z,17.80
2022-10-30T20:56:15.189Z,16.33
2022-10-30T20:58:43.592Z,16.77
2022-10-30T21:01:13.758Z,17.13
2022-10-30T21:03:42.169Z,20.93
2022-10-30T21:06:11.849Z,20.87
2022-10-30T21:08:40.177Z,19.70
2022-10-30T21:11:09.043Z,19.00
2022-10-30T21:13:38.201Z,17.27
2022-10-30T21:16:09.449Z,17.53
2022-10-30T21:18:37.901Z,16.53
2022-10-30T21:21:08.221Z,16.37
2022-10-30T21:23:38.099Z,18.60
2022-10-30T21:26:09.807Z,20.20
2022-10-30T21:28:38.321Z,19.93
2022-10-30T21:31:08.834Z,21.63
2022-10-30T21:33:38.338Z,20.23
2022-10-30T21:36:11.957Z,21.80
2022-10-30T21:38:44.390Z,19.43
2022-10-30T21:41:14.480Z,19.53
2022-10-30T21:43:42.777Z,17.83
2022-10-30T21:46:13.109Z,18.00
2022-10-30T21:48:41.715Z,16.77
2022-10-30T21:51:12.153Z,17.70
2022-10-30T21:53:42.475Z,17.27
2022-10-30T21:56:13.033Z,17.00
2022-10-30T21:58:41.503Z,16.37
2022-10-30T22:01:16.018Z,18.27
2022-10-30T22:03:44.785Z,19.27
2022-10-30T22:06:15.136Z,20.60
2022-10-30T22:08:47.238Z,20.73
2022-10-30T22:11:16.337Z,18.93
2022-10-30T22:13:44.952Z,18.23
2022-10-30T22:16:15.209Z,17.83
2022-10-30T22:18:43.567Z,19.20
2022-10-30T22:21:13.725Z,18.03
2022-10-30T22:23:42.959Z,17.93
2022-10-30T22:26:15.558Z,18.60
2022-10-30T22:28:44.931Z,18.70
2022-10-30T22:31:15.360Z,17.43
2022-10-30T22:33:43.758Z,15.93
2022-10-30T22:36:16.481Z,18.23
2022-10-30T22:38:45.270Z,17.00
2022-10-30T22:41:16.369Z,17.97
2022-10-30T22:43:46.201Z,17.03
2022-10-30T22:46:15.800Z,20.47
2022-10-30T22:48:44.677Z,17.57
2022-10-30T22:51:16.679Z,16.13
2022-10-30T22:53:46.470Z,16.63
2022-10-30T22:56:18.562Z,17.10
2022-10-30T22:58:48.097Z,19.37
2022-10-30T23:01:18.126Z,18.87
2022-10-30T23:03:47.027Z,18.37
2022-10-30T23:06:15.387Z,17.50
2022-10-30T23:08:43.880Z,16.10
2022-10-30T23:11:12.879Z,15.83
2022-10-30T23:13:42.542Z,19.53
2022-10-30T23:16:14.352Z,15.87
2022-10-30T23:18:42.921Z,17.30
2022-10-30T23:21:14.301Z,16.73
2022-10-30T23:23:43.279Z,21.50
2022-10-30T23:26:13.629Z,18.60
2022-10-30T23:28:43.498Z,17.77
2022-10-30T23:31:16.915Z,17.37
2022-10-30T23:33:47.908Z,20.00
2022-10-30T23:36:16.699Z,17.20
2022-10-30T23:38:45.176Z,17.17
2022-10-30T23:41:13.462Z,18.27
2022-10-30T23:43:43.016Z,17.10
2022-10-30T23:46:11.296Z,21.03
2022-10-30T23:48:39.608Z,35.63
2022-10-30T23:51:08.828Z,47.20
2022-10-30T23:53:37.349Z,47.57
2022-10-30T23:56:06.356Z,36.90
2022-10-30T23:58:34.686Z,26.63
